sensor_id;sensor_type;location;lat;lon;timestamp;temperature;humidity
4520;DHT22;2272;49.226;8.108;2023-01-28T00:01:49;1.70;99.90
4520;DHT22;2272;49.226;8.108;2023-01-28T00:04:15;1.70;99.90
4520;DHT22;2272;49.226;8.108;2023-01-28T00:06:42;1.70;99.90
4520;DHT22;2272;49.226;8.108;2023-01-28T00:09:09;1.70;99.90
4520;DHT22;2272;49.226;8.108;2023-01-28T00:11:37;1.70;99.90
4520;DHT22;2272;49.226;8.108;2023-01-28T00:14:04;1.70;99.90
4520;DHT22;2272;49.226;8.108;2023-01-28T00:16:31;1.70;99.90
4520;DHT22;2272;49.226;8.108;2023-01-28T00:18:58;1.70;99.90
4520;DHT22;2272;49.226;8.108;2023-01-28T00:21:24;1.70;99.90
4520;DHT22;2272;49.226;8.108;2023-01-28T00:23:52;1.70;99.90
4520;DHT22;2272;49.226;8.108;2023-01-28T00:26:21;1.70;99.90
4520;DHT22;2272;49.226;8.108;2023-01-28T00:28:49;1.70;99.90
4520;DHT22;2272;49.226;8.108;2023-01-28T00:31:17;1.60;99.90
4520;DHT22;2272;49.226;8.108;2023-01-28T00:33:45;1.70;99.90
4520;DHT22;2272;49.226;8.108;2023-01-28T00:36:13;1.70;99.90
4520;DHT22;2272;49.226;8.108;2023-01-28T00:38:40;1.70;99.90
4520;DHT22;2272;49.226;8.108;2023-01-28T00:41:07;1.70;99.90
4520;DHT22;2272;49.226;8.108;2023-01-28T00:43:35;1.70;99.90
4520;DHT22;2272;49.226;8.108;2023-01-28T00:46:03;1.70;99.90
4520;DHT22;2272;49.226;8.108;2023-01-28T00:48:31;1.70;99.90
4520;DHT22;2272;49.226;8.108;2023-01-28T00:50:58;1.70;99.90
4520;DHT22;2272;49.226;8.108;2023-01-28T00:53:25;1.70;99.90
4520;DHT22;2272;49.226;8.108;2023-01-28T00:55:52;1.70;99.90
4520;DHT22;2272;49.226;8.108;2023-01-28T00:58:18;1.70;99.90
4520;DHT22;2272;49.226;8.108;2023-01-28T01:00:45;1.60;99.90
4520;DHT22;2272;49.226;8.108;2023-01-28T01:03:13;1.70;99.90
4520;DHT22;2272;49.226;8.108;2023-01-28T01:05:40;1.60;99.90
4520;DHT22;2272;49.226;8.108;2023-01-28T01:08:06;1.60;99.90
4520;DHT22;2272;49.226;8.108;2023-01-28T01:10:33;1.60;99.90
4520;DHT22;2272;49.226;8.108;2023-01-28T01:13:00;1.60;99.90
4520;DHT22;2272;49.226;8.108;2023-01-28T01:15:26;1.60;99.90
4520;DHT22;2272;49.226;8.108;2023-01-28T01:17:53;1.60;99.90
4520;DHT22;2272;49.226;8.108;2023-01-28T01:20:24;1.60;99.90
4520;DHT22;2272;49.226;8.108;2023-01-28T01:22:51;1.60;99.90
4520;DHT22;2272;49.226;8.108;2023-01-28T01:25:18;1.60;99.90
4520;DHT22;2272;49.226;8.108;2023-01-28T01:27:47;1.60;99.90
4520;DHT22;2272;49.226;8.108;2023-01-28T01:30:15;1.60;99.90
4520;DHT22;2272;49.226;8.108;2023-01-28T01:32:41;1.60;99.90
4520;DHT22;2272;49.226;8.108;2023-01-28T01:35:09;1.60;99.90
4520;DHT22;2272;49.226;8.108;2023-01-28T01:37:37;1.60;99.90
4520;DHT22;2272;49.226;8.108;2023-01-28T01:40:05;1.60;99.90
4520;DHT22;2272;49.226;8.108;2023-01-28T01:42:32;1.50;99.90
4520;DHT22;2272;49.226;8.108;2023-01-28T01:45:01;1.50;99.90
4520;DHT22;2272;49.226;8.108;2023-01-28T01:47:34;1.50;99.90
4520;DHT22;2272;49.226;8.108;2023-01-28T01:50:05;1.50;99.90
4520;DHT22;2272;49.226;8.108;2023-01-28T01:52:34;1.50;99.90
4520;DHT22;2272;49.226;8.108;2023-01-28T01:55:06;1.60;99.90
4520;DHT22;2272;49.226;8.108;2023-01-28T01:57:35;1.50;99.90
4520;DHT22;2272;49.226;8.108;2023-01-28T02:00:05;1.50;99.90
4520;DHT22;2272;49.226;8.108;2023-01-28T02:02:36;1.50;99.90
4520;DHT22;2272;49.226;8.108;2023-01-28T02:05:04;1.50;99.90
4520;DHT22;2272;49.226;8.108;2023-01-28T02:07:30;1.50;99.90
4520;DHT22;2272;49.226;8.108;2023-01-28T02:09:57;1.40;99.90
4520;DHT22;2272;49.226;8.108;2023-01-28T02:12:29;1.40;99.90
4520;DHT22;2272;49.226;8.108;2023-01-28T02:14:59;1.40;99.90
4520;DHT22;2272;49.226;8.108;2023-01-28T02:17:28;1.40;99.90
4520;DHT22;2272;49.226;8.108;2023-01-28T02:19:57;1.40;99.90
4520;DHT22;2272;49.226;8.108;2023-01-28T02:23:04;1.40;99.90
4520;DHT22;2272;49.226;8.108;2023-01-28T02:25:56;1.40;99.90
4520;DHT22;2272;49.226;8.108;2023-01-28T02:28:35;1.40;99.90
4520;DHT22;2272;49.226;8.108;2023-01-28T02:31:08;1.50;99.90
4520;DHT22;2272;49.226;8.108;2023-01-28T02:33:40;1.40;99.90
4520;DHT22;2272;49.226;8.108;2023-01-28T02:36:16;1.50;99.90
4520;DHT22;2272;49.226;8.108;2023-01-28T02:38:47;1.40;99.90
4520;DHT22;2272;49.226;8.108;2023-01-28T02:41:19;1.40;99.90
4520;DHT22;2272;49.226;8.108;2023-01-28T02:43:49;1.40;99.90
4520;DHT22;2272;49.226;8.108;2023-01-28T02:46:21;1.40;99.90
4520;DHT22;2272;49.226;8.108;2023-01-28T02:49:08;1.40;99.90
4520;DHT22;2272;49.226;8.108;2023-01-28T02:51:46;1.40;99.90
4520;DHT22;2272;49.226;8.108;2023-01-28T02:54:24;1.40;99.90
4520;DHT22;2272;49.226;8.108;2023-01-28T02:56:56;1.40;99.90
4520;DHT22;2272;49.226;8.108;2023-01-28T02:59:30;1.40;99.90
4520;DHT22;2272;49.226;8.108;2023-01-28T03:02:09;1.40;99.90
4520;DHT22;2272;49.226;8.108;2023-01-28T03:04:43;1.40;99.90
4520;DHT22;2272;49.226;8.108;2023-01-28T03:07:13;1.40;99.90
4520;DHT22;2272;49.226;8.108;2023-01-28T03:09:42;1.40;99.90
4520;DHT22;2272;49.226;8.108;2023-01-28T03:12:13;1.40;99.90
4520;DHT22;2272;49.226;8.108;2023-01-28T03:15:03;1.40;99.90
4520;DHT22;2272;49.226;8.108;2023-01-28T03:17:51;1.30;99.90
4520;DHT22;2272;49.226;8.108;2023-01-28T03:20:40;1.30;99.90
4520;DHT22;2272;49.226;8.108;2023-01-28T03:23:29;1.30;99.90
4520;DHT22;2272;49.226;8.108;2023-01-28T03:26:14;1.30;99.90
4520;DHT22;2272;49.226;8.108;2023-01-28T03:29:04;1.30;99.90
4520;DHT22;2272;49.226;8.108;2023-01-28T03:31:51;1.30;99.90
4520;DHT22;2272;49.226;8.108;2023-01-28T03:34:37;1.40;99.90
4520;DHT22;2272;49.226;8.108;2023-01-28T03:37:21;1.30;99.90
4520;DHT22;2272;49.226;8.108;2023-01-28T03:39:48;1.30;99.90
4520;DHT22;2272;49.226;8.108;2023-01-28T03:42:14;1.30;99.90
4520;DHT22;2272;49.226;8.108;2023-01-28T03:44:43;1.30;99.90
4520;DHT22;2272;49.226;8.108;2023-01-28T03:47:18;1.30;99.90
4520;DHT22;2272;49.226;8.108;2023-01-28T03:49:46;1.30;99.90
4520;DHT22;2272;49.226;8.108;2023-01-28T03:52:15;1.20;99.90
4520;DHT22;2272;49.226;8.108;2023-01-28T03:54:43;1.20;99.90
4520;DHT22;2272;49.226;8.108;2023-01-28T03:57:12;1.20;99.90
4520;DHT22;2272;49.226;8.108;2023-01-28T03:59:38;1.20;99.90
4520;DHT22;2272;49.226;8.108;2023-01-28T04:02:05;1.20;99.90
4520;DHT22;2272;49.226;8.108;2023-01-28T04:04:34;1.20;99.90
4520;DHT22;2272;49.226;8.108;2023-01-28T04:07:01;1.20;99.90
4520;DHT22;2272;49.226;8.108;2023-01-28T04:09:27;1.20;99.90
4520;DHT22;2272;49.226;8.108;2023-01-28T04:11:54;1.20;99.90
4520;DHT22;2272;49.226;8.108;2023-01-28T04:14:21;1.20;99.90
4520;DHT22;2272;49.226;8.108;2023-01-28T04:16:47;1.20;99.90
4520;DHT22;2272;49.226;8.108;2023-01-28T04:19:14;1.20;99.90
4520;DHT22;2272;49.226;8.108;2023-01-28T04:21:42;1.20;99.90
4520;DHT22;2272;49.226;8.108;2023-01-28T04:24:09;1.20;99.90
4520;DHT22;2272;49.226;8.108;2023-01-28T04:26:35;1.20;99.90
4520;DHT22;2272;49.226;8.108;2023-01-28T04:29:02;1.20;99.90
4520;DHT22;2272;49.226;8.108;2023-01-28T04:31:29;1.20;99.90
4520;DHT22;2272;49.226;8.108;2023-01-28T04:33:56;1.10;99.90
4520;DHT22;2272;49.226;8.108;2023-01-28T04:36:23;1.10;99.90
4520;DHT22;2272;49.226;8.108;2023-01-28T04:38:51;1.20;99.90
4520;DHT22;2272;49.226;8.108;2023-01-28T04:41:18;1.20;99.90
4520;DHT22;2272;49.226;8.108;2023-01-28T04:43:44;1.10;99.90
4520;DHT22;2272;49.226;8.108;2023-01-28T04:46:13;1.10;99.90
4520;DHT22;2272;49.226;8.108;2023-01-28T04:48:40;1.10;99.90
4520;DHT22;2272;49.226;8.108;2023-01-28T04:51:07;1.10;99.90
4520;DHT22;2272;49.226;8.108;2023-01-28T04:53:34;1.10;99.90
4520;DHT22;2272;49.226;8.108;2023-01-28T04:56:02;1.10;99.90
4520;DHT22;2272;49.226;8.108;2023-01-28T04:58:28;1.10;99.90
4520;DHT22;2272;49.226;8.108;2023-01-28T05:00:56;1.10;99.90
4520;DHT22;2272;49.226;8.108;2023-01-28T05:03:23;1.10;99.90
4520;DHT22;2272;49.226;8.108;2023-01-28T05:05:50;1.10;99.90
4520;DHT22;2272;49.226;8.108;2023-01-28T05:08:17;1.10;99.90
4520;DHT22;2272;49.226;8.108;2023-01-28T05:10:43;1.10;99.90
4520;DHT22;2272;49.226;8.108;2023-01-28T05:13:11;1.10;99.90
4520;DHT22;2272;49.226;8.108;2023-01-28T05:15:38;1.10;99.90
4520;DHT22;2272;49.226;8.108;2023-01-28T05:18:05;1.10;99.90
4520;DHT22;2272;49.226;8.108;2023-01-28T05:20:32;1.00;99.90
4520;DHT22;2272;49.226;8.108;2023-01-28T05:22:58;1.00;99.90
4520;DHT22;2272;49.226;8.108;2023-01-28T05:25:25;1.10;99.90
4520;DHT22;2272;49.226;8.108;2023-01-28T05:27:52;1.00;99.90
4520;DHT22;2272;49.226;8.108;2023-01-28T05:30:21;1.00;99.90
4520;DHT22;2272;49.226;8.108;2023-01-28T05:32:47;1.00;99.90
4520;DHT22;2272;49.226;8.108;2023-01-28T05:35:14;1.00;99.90
4520;DHT22;2272;49.226;8.108;2023-01-28T05:37:41;1.00;99.90
4520;DHT22;2272;49.226;8.108;2023-01-28T05:40:09;1.00;99.90
4520;DHT22;2272;49.226;8.108;2023-01-28T05:42:36;1.00;99.90
4520;DHT22;2272;49.226;8.108;2023-01-28T05:45:03;1.00;99.90
4520;DHT22;2272;49.226;8.108;2023-01-28T05:47:32;1.00;99.90
4520;DHT22;2272;49.226;8.108;2023-01-28T05:49:59;1.00;99.90
4520;DHT22;2272;49.226;8.108;2023-01-28T05:52:26;1.00;99.90
4520;DHT22;2272;49.226;8.108;2023-01-28T05:54:52;1.00;99.90
4520;DHT22;2272;49.226;8.108;2023-01-28T05:57:19;1.00;99.90
4520;DHT22;2272;49.226;8.108;2023-01-28T05:59:45;1.00;99.90
4520;DHT22;2272;49.226;8.108;2023-01-28T06:02:12;1.00;99.90
4520;DHT22;2272;49.226;8.108;2023-01-28T06:04:40;1.00;99.90
4520;DHT22;2272;49.226;8.108;2023-01-28T06:07:07;1.00;99.90
4520;DHT22;2272;49.226;8.108;2023-01-28T06:09:33;1.00;99.90
4520;DHT22;2272;49.226;8.108;2023-01-28T06:12:00;1.00;99.90
4520;DHT22;2272;49.226;8.108;2023-01-28T06:14:27;1.00;99.90
4520;DHT22;2272;49.226;8.108;2023-01-28T06:16:53;1.00;99.90
4520;DHT22;2272;49.226;8.108;2023-01-28T06:19:20;1.00;99.90
4520;DHT22;2272;49.226;8.108;2023-01-28T06:21:48;1.00;99.90
4520;DHT22;2272;49.226;8.108;2023-01-28T06:24:14;1.00;99.90
4520;DHT22;2272;49.226;8.108;2023-01-28T06:26:41;0.90;99.90
4520;DHT22;2272;49.226;8.108;2023-01-28T06:29:08;1.00;99.90
4520;DHT22;2272;49.226;8.108;2023-01-28T06:31:35;1.00;99.90
4520;DHT22;2272;49.226;8.108;2023-01-28T06:34:01;1.00;99.90
4520;DHT22;2272;49.226;8.108;2023-01-28T06:36:29;0.90;99.90
4520;DHT22;2272;49.226;8.108;2023-01-28T06:38:57;0.90;99.90
4520;DHT22;2272;49.226;8.108;2023-01-28T06:41:23;0.90;99.90
4520;DHT22;2272;49.226;8.108;2023-01-28T06:43:50;0.90;99.90
4520;DHT22;2272;49.226;8.108;2023-01-28T06:46:17;0.90;99.90
4520;DHT22;2272;49.226;8.108;2023-01-28T06:48:43;0.90;99.90
4520;DHT22;2272;49.226;8.108;2023-01-28T06:51:10;0.80;99.90
4520;DHT22;2272;49.226;8.108;2023-01-28T06:53:37;0.90;99.90
4520;DHT22;2272;49.226;8.108;2023-01-28T06:56:05;0.90;99.90
4520;DHT22;2272;49.226;8.108;2023-01-28T06:58:33;0.90;99.90
4520;DHT22;2272;49.226;8.108;2023-01-28T07:01:00;0.90;99.90
4520;DHT22;2272;49.226;8.108;2023-01-28T07:03:28;0.90;99.90
4520;DHT22;2272;49.226;8.108;2023-01-28T07:05:55;0.90;99.90
4520;DHT22;2272;49.226;8.108;2023-01-28T07:08:21;0.90;99.90
4520;DHT22;2272;49.226;8.108;2023-01-28T07:10:48;0.90;99.90
4520;DHT22;2272;49.226;8.108;2023-01-28T07:13:16;0.90;99.90
4520;DHT22;2272;49.226;8.108;2023-01-28T07:15:42;0.90;99.90
4520;DHT22;2272;49.226;8.108;2023-01-28T07:18:09;0.90;99.90
4520;DHT22;2272;49.226;8.108;2023-01-28T07:20:36;0.90;99.90
4520;DHT22;2272;49.226;8.108;2023-01-28T07:23:03;0.90;99.90
4520;DHT22;2272;49.226;8.108;2023-01-28T07:25:29;0.90;99.90
4520;DHT22;2272;49.226;8.108;2023-01-28T07:27:56;0.90;99.90
4520;DHT22;2272;49.226;8.108;2023-01-28T07:30:24;0.90;99.90
4520;DHT22;2272;49.226;8.108;2023-01-28T07:32:55;0.90;99.90
4520;DHT22;2272;49.226;8.108;2023-01-28T07:35:22;0.90;99.90
4520;DHT22;2272;49.226;8.108;2023-01-28T07:37:50;0.80;99.90
4520;DHT22;2272;49.226;8.108;2023-01-28T07:40:18;0.80;99.90
4520;DHT22;2272;49.226;8.108;2023-01-28T07:42:44;0.80;99.90
4520;DHT22;2272;49.226;8.108;2023-01-28T07:45:11;0.80;99.90
4520;DHT22;2272;49.226;8.108;2023-01-28T07:47:40;0.80;99.90
4520;DHT22;2272;49.226;8.108;2023-01-28T07:50:07;0.80;99.90
4520;DHT22;2272;49.226;8.108;2023-01-28T07:52:36;0.80;99.90
4520;DHT22;2272;49.226;8.108;2023-01-28T07:55:09;0.90;99.90
4520;DHT22;2272;49.226;8.108;2023-01-28T07:57:36;0.90;99.90
4520;DHT22;2272;49.226;8.108;2023-01-28T08:00:03;0.90;99.90
4520;DHT22;2272;49.226;8.108;2023-01-28T08:02:30;1.00;99.90
4520;DHT22;2272;49.226;8.108;2023-01-28T08:04:58;1.00;99.90
4520;DHT22;2272;49.226;8.108;2023-01-28T08:07:27;1.00;99.90
4520;DHT22;2272;49.226;8.108;2023-01-28T08:09:53;1.00;99.90
4520;DHT22;2272;49.226;8.108;2023-01-28T08:12:20;1.00;99.90
4520;DHT22;2272;49.226;8.108;2023-01-28T08:14:47;1.00;99.90
4520;DHT22;2272;49.226;8.108;2023-01-28T08:17:13;1.00;99.90
4520;DHT22;2272;49.226;8.108;2023-01-28T08:19:40;1.00;99.90
4520;DHT22;2272;49.226;8.108;2023-01-28T08:22:08;1.00;99.90
4520;DHT22;2272;49.226;8.108;2023-01-28T08:24:35;1.00;99.90
4520;DHT22;2272;49.226;8.108;2023-01-28T08:27:01;1.10;99.90
4520;DHT22;2272;49.226;8.108;2023-01-28T08:29:28;1.10;99.90
4520;DHT22;2272;49.226;8.108;2023-01-28T08:31:55;1.10;99.90
4520;DHT22;2272;49.226;8.108;2023-01-28T08:34:21;1.10;99.90
4520;DHT22;2272;49.226;8.108;2023-01-28T08:36:48;1.10;99.90
4520;DHT22;2272;49.226;8.108;2023-01-28T08:39:16;1.20;99.90
4520;DHT22;2272;49.226;8.108;2023-01-28T08:41:43;1.20;99.90
4520;DHT22;2272;49.226;8.108;2023-01-28T08:44:10;1.20;99.90
4520;DHT22;2272;49.226;8.108;2023-01-28T08:46:36;1.30;99.90
4520;DHT22;2272;49.226;8.108;2023-01-28T08:49:03;1.30;99.90
4520;DHT22;2272;49.226;8.108;2023-01-28T08:51:29;1.40;99.90
4520;DHT22;2272;49.226;8.108;2023-01-28T08:53:56;1.40;99.90
4520;DHT22;2272;49.226;8.108;2023-01-28T08:56:24;1.50;99.90
4520;DHT22;2272;49.226;8.108;2023-01-28T08:58:51;1.50;99.90
4520;DHT22;2272;49.226;8.108;2023-01-28T09:01:18;1.50;99.90
4520;DHT22;2272;49.226;8.108;2023-01-28T09:03:44;1.60;99.90
4520;DHT22;2272;49.226;8.108;2023-01-28T09:06:11;1.60;99.90
4520;DHT22;2272;49.226;8.108;2023-01-28T09:08:38;1.70;99.90
4520;DHT22;2272;49.226;8.108;2023-01-28T09:11:04;1.60;99.90
4520;DHT22;2272;49.226;8.108;2023-01-28T09:13:32;1.60;99.90
4520;DHT22;2272;49.226;8.108;2023-01-28T09:15:59;1.70;99.90
4520;DHT22;2272;49.226;8.108;2023-01-28T09:18:27;1.70;99.90
4520;DHT22;2272;49.226;8.108;2023-01-28T09:20:53;1.60;99.90
4520;DHT22;2272;49.226;8.108;2023-01-28T09:23:20;1.60;99.90
4520;DHT22;2272;49.226;8.108;2023-01-28T09:25:47;1.60;99.90
4520;DHT22;2272;49.226;8.108;2023-01-28T09:28:13;1.60;99.90
4520;DHT22;2272;49.226;8.108;2023-01-28T09:30:41;1.60;99.90
4520;DHT22;2272;49.226;8.108;2023-01-28T09:33:08;1.60;99.90
4520;DHT22;2272;49.226;8.108;2023-01-28T09:35:35;1.60;99.90
4520;DHT22;2272;49.226;8.108;2023-01-28T09:38:02;1.70;99.90
4520;DHT22;2272;49.226;8.108;2023-01-28T09:40:33;1.70;99.90
4520;DHT22;2272;49.226;8.108;2023-01-28T09:43:13;1.70;99.90
4520;DHT22;2272;49.226;8.108;2023-01-28T09:45:46;1.70;99.90
4520;DHT22;2272;49.226;8.108;2023-01-28T09:48:16;1.80;99.90
4520;DHT22;2272;49.226;8.108;2023-01-28T09:50:45;1.80;99.90
4520;DHT22;2272;49.226;8.108;2023-01-28T09:53:17;1.90;99.90
4520;DHT22;2272;49.226;8.108;2023-01-28T09:55:48;1.90;99.90
4520;DHT22;2272;49.226;8.108;2023-01-28T09:58:16;1.90;99.90
4520;DHT22;2272;49.226;8.108;2023-01-28T10:00:51;2.00;99.90
4520;DHT22;2272;49.226;8.108;2023-01-28T10:03:33;2.00;99.90
4520;DHT22;2272;49.226;8.108;2023-01-28T10:06:12;2.00;99.90
4520;DHT22;2272;49.226;8.108;2023-01-28T10:08:59;2.10;99.90
4520;DHT22;2272;49.226;8.108;2023-01-28T10:11:37;2.10;99.90
4520;DHT22;2272;49.226;8.108;2023-01-28T10:14:11;2.10;99.90
4520;DHT22;2272;49.226;8.108;2023-01-28T10:16:43;2.00;99.90
4520;DHT22;2272;49.226;8.108;2023-01-28T10:19:17;2.00;99.90
4520;DHT22;2272;49.226;8.108;2023-01-28T10:21:47;2.00;99.90
4520;DHT22;2272;49.226;8.108;2023-01-28T10:24:17;2.10;99.90
4520;DHT22;2272;49.226;8.108;2023-01-28T10:26:46;2.10;99.90
4520;DHT22;2272;49.226;8.108;2023-01-28T10:29:16;2.20;99.90
4520;DHT22;2272;49.226;8.108;2023-01-28T10:31:51;2.10;99.90
4520;DHT22;2272;49.226;8.108;2023-01-28T10:34:18;2.10;99.90
4520;DHT22;2272;49.226;8.108;2023-01-28T10:36:45;2.10;99.90
4520;DHT22;2272;49.226;8.108;2023-01-28T10:39:13;2.20;99.90
4520;DHT22;2272;49.226;8.108;2023-01-28T10:41:40;2.20;99.90
4520;DHT22;2272;49.226;8.108;2023-01-28T10:44:14;2.30;99.90
4520;DHT22;2272;49.226;8.108;2023-01-28T10:46:45;2.50;99.90
4520;DHT22;2272;49.226;8.108;2023-01-28T10:49:15;2.40;99.90
4520;DHT22;2272;49.226;8.108;2023-01-28T10:51:42;2.50;99.90
4520;DHT22;2272;49.226;8.108;2023-01-28T10:54:20;2.50;99.90
4520;DHT22;2272;49.226;8.108;2023-01-28T10:56:48;2.50;99.90
4520;DHT22;2272;49.226;8.108;2023-01-28T10:59:21;2.50;99.90
4520;DHT22;2272;49.226;8.108;2023-01-28T11:01:51;2.60;99.90
4520;DHT22;2272;49.226;8.108;2023-01-28T11:04:22;2.70;99.90
4520;DHT22;2272;49.226;8.108;2023-01-28T11:06:59;2.90;99.90
4520;DHT22;2272;49.226;8.108;2023-01-28T11:09:27;2.80;99.90
4520;DHT22;2272;49.226;8.108;2023-01-28T11:11:55;2.80;99.90
4520;DHT22;2272;49.226;8.108;2023-01-28T11:14:23;2.80;99.90
4520;DHT22;2272;49.226;8.108;2023-01-28T11:16:54;2.90;99.90
4520;DHT22;2272;49.226;8.108;2023-01-28T11:19:26;3.00;99.90
4520;DHT22;2272;49.226;8.108;2023-01-28T11:21:56;2.90;99.90
4520;DHT22;2272;49.226;8.108;2023-01-28T11:24:26;2.80;99.90
4520;DHT22;2272;49.226;8.108;2023-01-28T11:26:56;2.80;99.90
4520;DHT22;2272;49.226;8.108;2023-01-28T11:29:26;2.80;99.90
4520;DHT22;2272;49.226;8.108;2023-01-28T11:31:55;2.70;99.90
4520;DHT22;2272;49.226;8.108;2023-01-28T11:34:26;2.80;99.90
4520;DHT22;2272;49.226;8.108;2023-01-28T11:36:59;2.70;99.90
4520;DHT22;2272;49.226;8.108;2023-01-28T11:39:27;2.60;99.90
4520;DHT22;2272;49.226;8.108;2023-01-28T11:42:02;2.50;99.90
4520;DHT22;2272;49.226;8.108;2023-01-28T11:44:30;2.60;99.90
4520;DHT22;2272;49.226;8.108;2023-01-28T11:47:15;2.60;99.90
4520;DHT22;2272;49.226;8.108;2023-01-28T11:49:56;2.60;99.90
4520;DHT22;2272;49.226;8.108;2023-01-28T11:52:33;2.50;99.90
4520;DHT22;2272;49.226;8.108;2023-01-28T11:55:17;2.50;99.90
4520;DHT22;2272;49.226;8.108;2023-01-28T11:57:56;2.60;99.90
4520;DHT22;2272;49.226;8.108;2023-01-28T12:00:37;2.60;99.90
4520;DHT22;2272;49.226;8.108;2023-01-28T12:03:25;2.70;99.90
4520;DHT22;2272;49.226;8.108;2023-01-28T12:05:56;2.70;99.90
4520;DHT22;2272;49.226;8.108;2023-01-28T12:08:31;2.70;99.90
4520;DHT22;2272;49.226;8.108;2023-01-28T12:11:19;2.70;99.90
4520;DHT22;2272;49.226;8.108;2023-01-28T12:14:17;2.70;99.90
4520;DHT22;2272;49.226;8.108;2023-01-28T12:16:53;2.70;99.90
4520;DHT22;2272;49.226;8.108;2023-01-28T12:19:36;2.60;99.90
4520;DHT22;2272;49.226;8.108;2023-01-28T12:22:27;2.60;99.90
4520;DHT22;2272;49.226;8.108;2023-01-28T12:25:18;2.50;99.90
4520;DHT22;2272;49.226;8.108;2023-01-28T12:27:51;2.50;99.90
4520;DHT22;2272;49.226;8.108;2023-01-28T12:30:27;2.70;99.90
4520;DHT22;2272;49.226;8.108;2023-01-28T12:33:21;2.70;99.90
4520;DHT22;2272;49.226;8.108;2023-01-28T12:36:00;2.80;99.90
4520;DHT22;2272;49.226;8.108;2023-01-28T12:38:39;2.80;99.90
4520;DHT22;2272;49.226;8.108;2023-01-28T12:41:12;2.80;99.90
4520;DHT22;2272;49.226;8.108;2023-01-28T12:43:52;2.80;99.90
4520;DHT22;2272;49.226;8.108;2023-01-28T12:46:34;3.00;99.90
4520;DHT22;2272;49.226;8.108;2023-01-28T12:49:05;3.00;99.90
4520;DHT22;2272;49.226;8.108;2023-01-28T12:51:40;3.10;99.90
4520;DHT22;2272;49.226;8.108;2023-01-28T12:54:15;3.10;99.90
4520;DHT22;2272;49.226;8.108;2023-01-28T12:56:47;3.10;99.90
4520;DHT22;2272;49.226;8.108;2023-01-28T12:59:19;3.10;99.90
4520;DHT22;2272;49.226;8.108;2023-01-28T13:01:52;3.10;99.90
4520;DHT22;2272;49.226;8.108;2023-01-28T13:04:30;3.00;99.90
4520;DHT22;2272;49.226;8.108;2023-01-28T13:07:03;3.00;99.90
4520;DHT22;2272;49.226;8.108;2023-01-28T13:09:35;2.90;99.90
4520;DHT22;2272;49.226;8.108;2023-01-28T13:12:03;2.80;99.90
4520;DHT22;2272;49.226;8.108;2023-01-28T13:14:32;2.80;99.90
4520;DHT22;2272;49.226;8.108;2023-01-28T13:17:08;2.70;99.90
4520;DHT22;2272;49.226;8.108;2023-01-28T13:19:36;2.70;99.90
4520;DHT22;2272;49.226;8.108;2023-01-28T13:22:11;2.60;99.90
4520;DHT22;2272;49.226;8.108;2023-01-28T13:24:39;2.60;99.90
4520;DHT22;2272;49.226;8.108;2023-01-28T13:27:22;2.60;99.90
4520;DHT22;2272;49.226;8.108;2023-01-28T13:30:00;2.60;99.90
4520;DHT22;2272;49.226;8.108;2023-01-28T13:32:30;2.60;99.90
4520;DHT22;2272;49.226;8.108;2023-01-28T13:34:59;2.70;99.90
4520;DHT22;2272;49.226;8.108;2023-01-28T13:37:31;2.70;99.90
4520;DHT22;2272;49.226;8.108;2023-01-28T13:40:06;2.70;99.90
4520;DHT22;2272;49.226;8.108;2023-01-28T13:42:34;2.80;99.90
4520;DHT22;2272;49.226;8.108;2023-01-28T13:45:21;2.70;99.90
4520;DHT22;2272;49.226;8.108;2023-01-28T13:47:51;2.70;99.90
4520;DHT22;2272;49.226;8.108;2023-01-28T13:50:20;2.60;99.90
4520;DHT22;2272;49.226;8.108;2023-01-28T13:52:54;2.60;99.90
4520;DHT22;2272;49.226;8.108;2023-01-28T13:55:24;2.50;99.90
4520;DHT22;2272;49.226;8.108;2023-01-28T13:58:20;2.50;99.90
4520;DHT22;2272;49.226;8.108;2023-01-28T14:01:11;2.40;99.90
4520;DHT22;2272;49.226;8.108;2023-01-28T14:04:07;2.40;99.90
4520;DHT22;2272;49.226;8.108;2023-01-28T14:09:57;2.20;99.90
4520;DHT22;2272;49.226;8.108;2023-01-28T14:12:46;2.20;99.90
4520;DHT22;2272;49.226;8.108;2023-01-28T14:18:25;2.10;99.90
4520;DHT22;2272;49.226;8.108;2023-01-28T14:20:54;2.20;99.90
4520;DHT22;2272;49.226;8.108;2023-01-28T14:23:23;2.10;99.90
4520;DHT22;2272;49.226;8.108;2023-01-28T14:26:02;2.10;99.90
4520;DHT22;2272;49.226;8.108;2023-01-28T14:28:37;2.10;99.90
4520;DHT22;2272;49.226;8.108;2023-01-28T14:31:08;2.00;99.90
4520;DHT22;2272;49.226;8.108;2023-01-28T14:33:37;2.00;99.90
4520;DHT22;2272;49.226;8.108;2023-01-28T14:36:04;1.90;99.90
4520;DHT22;2272;49.226;8.108;2023-01-28T14:38:36;1.90;99.90
4520;DHT22;2272;49.226;8.108;2023-01-28T14:41:06;1.80;99.90
4520;DHT22;2272;49.226;8.108;2023-01-28T14:43:35;1.80;99.90
4520;DHT22;2272;49.226;8.108;2023-01-28T14:46:12;1.70;99.90
4520;DHT22;2272;49.226;8.108;2023-01-28T14:48:47;1.70;99.90
4520;DHT22;2272;49.226;8.108;2023-01-28T14:51:39;1.70;99.90
4520;DHT22;2272;49.226;8.108;2023-01-28T14:57:20;1.70;99.90
4520;DHT22;2272;49.226;8.108;2023-01-28T14:59:53;1.70;99.90
4520;DHT22;2272;49.226;8.108;2023-01-28T15:02:24;1.70;99.90
4520;DHT22;2272;49.226;8.108;2023-01-28T15:04:51;1.60;99.90
4520;DHT22;2272;49.226;8.108;2023-01-28T15:07:20;1.60;99.90
4520;DHT22;2272;49.226;8.108;2023-01-28T15:09:58;1.60;99.90
4520;DHT22;2272;49.226;8.108;2023-01-28T15:12:27;1.50;99.90
4520;DHT22;2272;49.226;8.108;2023-01-28T15:14:54;1.50;99.90
4520;DHT22;2272;49.226;8.108;2023-01-28T15:17:24;1.50;99.90
4520;DHT22;2272;49.226;8.108;2023-01-28T15:19:54;1.40;99.90
4520;DHT22;2272;49.226;8.108;2023-01-28T15:22:25;1.40;99.90
4520;DHT22;2272;49.226;8.108;2023-01-28T15:24:52;1.40;99.90
4520;DHT22;2272;49.226;8.108;2023-01-28T15:27:25;1.40;99.90
4520;DHT22;2272;49.226;8.108;2023-01-28T15:29:56;1.30;99.90
4520;DHT22;2272;49.226;8.108;2023-01-28T15:32:26;1.30;99.90
4520;DHT22;2272;49.226;8.108;2023-01-28T15:34:53;1.20;99.90
4520;DHT22;2272;49.226;8.108;2023-01-28T15:37:20;1.20;99.90
4520;DHT22;2272;49.226;8.108;2023-01-28T15:39:47;1.20;99.90
4520;DHT22;2272;49.226;8.108;2023-01-28T15:42:19;1.20;99.90
4520;DHT22;2272;49.226;8.108;2023-01-28T15:44:47;1.20;99.90
4520;DHT22;2272;49.226;8.108;2023-01-28T15:47:20;1.10;99.90
4520;DHT22;2272;49.226;8.108;2023-01-28T15:49:50;1.10;99.90
4520;DHT22;2272;49.226;8.108;2023-01-28T15:52:17;1.10;99.90
4520;DHT22;2272;49.226;8.108;2023-01-28T15:54:48;1.10;99.90
4520;DHT22;2272;49.226;8.108;2023-01-28T15:57:19;1.10;99.90
4520;DHT22;2272;49.226;8.108;2023-01-28T15:59:46;1.00;99.90
4520;DHT22;2272;49.226;8.108;2023-01-28T16:02:21;1.00;99.90
4520;DHT22;2272;49.226;8.108;2023-01-28T16:04:56;1.00;99.90
4520;DHT22;2272;49.226;8.108;2023-01-28T16:07:23;0.90;99.90
4520;DHT22;2272;49.226;8.108;2023-01-28T16:09:51;0.90;99.90
4520;DHT22;2272;49.226;8.108;2023-01-28T16:12:18;0.90;99.90
4520;DHT22;2272;49.226;8.108;2023-01-28T16:14:49;0.90;99.90
4520;DHT22;2272;49.226;8.108;2023-01-28T16:17:20;0.80;99.90
4520;DHT22;2272;49.226;8.108;2023-01-28T16:19:49;0.80;99.90
4520;DHT22;2272;49.226;8.108;2023-01-28T16:22:19;0.80;99.90
4520;DHT22;2272;49.226;8.108;2023-01-28T16:24:51;0.70;99.90
4520;DHT22;2272;49.226;8.108;2023-01-28T16:27:20;0.70;99.90
4520;DHT22;2272;49.226;8.108;2023-01-28T16:29:47;0.70;99.90
4520;DHT22;2272;49.226;8.108;2023-01-28T16:32:27;0.70;99.90
4520;DHT22;2272;49.226;8.108;2023-01-28T16:34:54;0.60;99.90
4520;DHT22;2272;49.226;8.108;2023-01-28T16:37:21;0.60;99.90
4520;DHT22;2272;49.226;8.108;2023-01-28T16:39:48;0.60;99.90
4520;DHT22;2272;49.226;8.108;2023-01-28T16:42:15;0.60;99.90
4520;DHT22;2272;49.226;8.108;2023-01-28T16:44:41;0.60;99.90
4520;DHT22;2272;49.226;8.108;2023-01-28T16:47:08;0.60;99.90
4520;DHT22;2272;49.226;8.108;2023-01-28T16:49:36;0.60;99.90